Aérodrome :







RETROUVEZ-NOUS SUR...

 
LOGIN :

S'inscrire | Disclaimer

   EN    FR    IT 

 









Légende :    VFR   VFR Marginal   IFR   IFR Intensif   IFR Très Intensif
Visi : 
Plafond : 
>= 8 km
>= 3000ft
5 à 8 km
1000 à 3000 ft
1500m à 5 km
500 à 1000 ft
800 à 1500m
200 à 500 ft
< 800m
< 200 ft
Symboles :   Orages  Brouillard  Fortes neiges  Fortes précipitations  Vent > 20 kt






- Altitude de l'aérodrome : 141 ft
- Code IATA : YQI


CYQI - Yarmouth

DERNIER METAR :
  • 210800Z 36013KT 15SM SCT010 BKN048 OVC088 03/02 A2982 RMK SF4SF2AC2 SLP102

METARs EXPIRÉS :
  • 210700Z 36013G19KT 15SM FEW011 BKN046 OVC072 03/02 A2982 RMK SF2SC4AC2 SLP100
  • 210600Z 36010KT 15SM BKN009 OVC036 03/02 A2982 RMK SF5SC3 SLP100

TAF TAF CYQI
Valide du 21 à 06h jusqu'au 21 à 18h UTC


210538Z 2106/2118 01012G22KT P6SM FEW009 OVC030
TEMPO 2106/2110 4SM -RA -DZ BR OVC009
BECMG 2107/2109 35015G25KT
FM211000 35015G25KT P6SM OVC020
TEMPO 2110/2118 OVC030 RMK NXT FCST BY 211200Z



MET'MAP, la Météo Aéronautique d'un coup d'oeil ! - Copyright ORBIFLY Décembre 2007 - Disclaimer

ORBIFLY MET'MAP TEAM :

Programmation & Développement : Alexandra Zaïnal
Conception & Développement : Baudouin d'Aumeries
Co-Programmation & Développement : Marc-Olivier Méhu
Soutien technique & logistique : Manuel Goepfert

Contact : metmap@orbifly.com




SOURCES & CREDITS :

   NOAA